Time;durP1;ratioP1;P1;durP2;ratioP2;P2;SDS_P1;SDS_P2;PMS_P1;PMS_P2;Temp;Humidity;BMP_temperature;BMP_pressure;BME280_temperature;BME280_humidity;BME280_pressure;Samples;Min_cycle;Max_cycle;Signal;HPM_P1;HPM_P2
2021/07/09 04:53:33;;;;;;;5.30;3.30;;;;;;;20.37;70.97;98675.54;1871647;76;22666;-60
2021/07/09 04:56:01;;;;;;;11.05;3.20;;;;;;;20.37;70.71;98677.48;1828126;77;21375;-60
2021/07/09 04:58:28;;;;;;;6.30;2.80;;;;;;;20.45;70.49;98668.42;1827883;78;21067;-63
2021/07/09 05:00:54;;;;;;;5.45;2.90;;;;;;;20.57;70.39;98671.16;1827723;78;20975;-59
2021/07/09 05:03:21;;;;;;;6.33;3.02;;;;;;;20.68;69.92;98668.20;1827867;78;20864;-63
2021/07/09 05:05:48;;;;;;;11.63;3.33;;;;;;;20.82;69.68;98666.53;1827858;78;20916;-59
2021/07/09 05:08:15;;;;;;;7.25;2.90;;;;;;;20.95;68.77;98663.45;1827875;78;21010;-62
2021/07/09 05:10:42;;;;;;;10.40;3.25;;;;;;;21.08;68.22;98668.33;1827866;78;21363;-63
2021/07/09 05:13:09;;;;;;;7.78;2.87;;;;;;;21.20;67.38;98664.83;1827789;78;20963;-62
2021/07/09 05:15:36;;;;;;;5.55;2.98;;;;;;;21.30;66.81;98656.95;1827850;78;20864;-62
2021/07/09 05:18:03;;;;;;;5.72;2.80;;;;;;;21.40;66.32;98660.58;1827821;78;21454;-61
2021/07/09 05:20:31;;;;;;;11.60;3.10;;;;;;;21.50;65.88;98660.09;1827888;78;20895;-59
2021/07/09 05:22:57;;;;;;;5.92;3.00;;;;;;;21.59;65.34;98667.56;1827857;78;20965;-59
2021/07/09 05:25:24;;;;;;;4.90;2.60;;;;;;;21.70;64.89;98660.47;1827799;78;20860;-60
2021/07/09 05:27:51;;;;;;;6.58;2.80;;;;;;;21.81;63.97;98661.55;1828105;78;20872;-59
2021/07/09 05:30:18;;;;;;;6.03;2.58;;;;;;;21.92;63.74;98657.00;1827825;78;20971;-60
2021/07/09 05:32:45;;;;;;;8.90;2.70;;;;;;;22.00;62.90;98651.97;1827841;78;20948;-61
2021/07/09 05:35:13;;;;;;;6.30;2.77;;;;;;;22.07;62.38;98656.25;1827836;78;21107;-60
2021/07/09 05:37:40;;;;;;;7.75;2.50;;;;;;;22.15;62.32;98662.10;1828053;78;21450;-62
2021/07/09 05:40:08;;;;;;;4.83;2.25;;;;;;;22.21;62.12;98662.09;1828010;78;20951;-59
2021/07/09 05:42:35;;;;;;;3.95;2.30;;;;;;;22.28;61.54;98656.81;1827725;78;21462;-61
2021/07/09 05:45:03;;;;;;;4.03;2.50;;;;;;;22.34;60.93;98657.56;1827850;78;20896;-60
2021/07/09 05:47:29;;;;;;;7.92;2.05;;;;;;;22.42;60.93;98665.36;1828038;78;21172;-60
2021/07/09 05:49:56;;;;;;;3.75;2.35;;;;;;;22.49;60.37;98662.81;1827844;78;20958;-61
2021/07/09 05:52:23;;;;;;;8.13;2.25;;;;;;;22.55;59.57;98660.59;1825507;78;21446;-63
2021/07/09 05:54:50;;;;;;;6.80;2.12;;;;;;;22.61;59.61;98657.27;1822579;78;20904;-63
2021/07/09 05:57:16;;;;;;;5.28;2.27;;;;;;;22.67;59.24;98666.80;1822717;78;21450;-59
2021/07/09 05:59:43;;;;;;;8.73;2.50;;;;;;;22.74;58.84;98673.00;1822602;78;21109;-60
2021/07/09 06:02:10;;;;;;;7.55;2.45;;;;;;;22.79;58.13;98667.27;1822505;78;20941;-59
2021/07/09 06:04:36;;;;;;;8.93;2.70;;;;;;;22.84;57.78;98669.17;1822150;78;20873;-60
2021/07/09 06:07:03;;;;;;;9.48;2.37;;;;;;;22.89;57.70;98663.41;1820534;78;20856;-61
2021/07/09 06:09:32;;;;;;;4.85;2.30;;;;;;;22.95;56.87;98667.47;1822228;78;20827;-60
2021/07/09 06:11:59;;;;;;;10.80;2.83;;;;;;;23.01;56.83;98661.94;1822466;78;21726;-62
2021/07/09 06:14:27;;;;;;;6.72;2.30;;;;;;;23.07;57.13;98670.10;1822346;78;21366;-61
2021/07/09 06:16:53;;;;;;;13.65;2.77;;;;;;;23.17;57.47;98675.59;1822258;78;20820;-61
2021/07/09 06:19:21;;;;;;;3.92;2.22;;;;;;;23.27;57.14;98672.88;1822061;77;20963;-60
2021/07/09 06:21:51;;;;;;;7.42;2.40;;;;;;;23.37;56.96;98669.59;1821809;78;20924;-59
2021/07/09 06:24:17;;;;;;;9.83;2.40;;;;;;;23.44;56.37;98676.58;1822035;77;21159;-60
2021/07/09 06:26:44;;;;;;;4.28;2.37;;;;;;;23.50;56.25;98682.00;1821573;78;20864;-62
2021/07/09 06:29:11;;;;;;;5.40;2.25;;;;;;;23.58;55.47;98685.09;1821627;77;20845;-62
2021/07/09 06:31:39;;;;;;;6.05;2.00;;;;;;;23.63;54.46;98682.07;1821626;77;21015;-61
2021/07/09 06:34:06;;;;;;;4.12;2.20;;;;;;;23.68;54.55;98678.48;1821387;78;21009;-60
2021/07/09 06:36:33;;;;;;;8.20;2.40;;;;;;;23.77;54.61;98673.59;1821901;77;21101;-59
2021/07/09 06:39:00;;;;;;;7.17;2.10;;;;;;;23.84;54.80;98664.73;1821936;78;21761;-64
2021/07/09 06:41:27;;;;;;;4.97;1.82;;;;;;;23.93;54.27;98665.89;1822003;78;20892;-63
2021/07/09 06:43:56;;;;;;;10.23;2.10;;;;;;;24.00;54.41;98665.42;1822438;78;21396;-61
2021/07/09 06:46:24;;;;;;;7.17;2.10;;;;;;;24.06;54.65;98661.29;1821892;77;20919;-62
2021/07/09 06:48:54;;;;;;;5.70;2.50;;;;;;;24.13;55.65;98665.53;1822125;78;21068;-62
2021/07/09 06:51:21;;;;;;;7.25;2.17;;;;;;;24.21;55.67;98664.48;1821897;78;20892;-65
2021/07/09 06:53:48;;;;;;;9.30;2.70;;;;;;;24.30;55.72;98658.80;1821560;78;20940;-64
2021/07/09 06:56:16;;;;;;;7.75;2.27;;;;;;;24.37;55.08;98666.56;1821866;78;20825;-66
2021/07/09 06:58:43;;;;;;;11.25;2.90;;;;;;;24.44;53.16;98669.42;1822077;78;20841;-62
2021/07/09 07:01:09;;;;;;;6.30;2.52;;;;;;;24.51;53.14;98658.36;1821700;78;20974;-63
2021/07/09 07:03:38;;;;;;;5.20;2.12;;;;;;;24.59;52.51;98662.82;1821581;78;20963;-61
2021/07/09 07:06:05;;;;;;;8.33;2.37;;;;;;;24.64;52.18;98648.79;1821466;78;20900;-63
2021/07/09 07:08:33;;;;;;;11.65;2.52;;;;;;;24.70;51.59;98656.93;1819885;77;20881;-61
2021/07/09 07:11:02;;;;;;;13.53;2.50;;;;;;;24.76;52.00;98655.45;1819822;78;20917;-63
2021/07/09 07:13:29;;;;;;;13.85;2.77;;;;;;;24.83;51.40;98655.59;1788352;78;21185;-62
2021/07/09 07:15:56;;;;;;;5.37;2.30;;;;;;;24.89;50.81;98652.77;1819849;78;20921;-63
2021/07/09 07:18:24;;;;;;;8.90;2.12;;;;;;;24.94;50.62;98645.61;1788266;78;20913;-65
2021/07/09 07:20:57;;;;;;;8.78;2.27;;;;;;;24.99;51.75;98646.06;1819839;78;20945;-67
2021/07/09 07:23:22;;;;;;;6.42;2.33;;;;;;;25.07;49.85;98645.02;1818332;78;20902;-66
2021/07/09 07:25:50;;;;;;;8.40;2.40;;;;;;;25.11;49.60;98643.68;1820147;78;21109;-59
2021/07/09 07:28:18;;;;;;;4.17;2.10;;;;;;;25.15;49.05;98634.95;1820053;78;20934;-63
2021/07/09 07:30:44;;;;;;;8.50;2.05;;;;;;;25.20;48.88;98644.23;1819975;78;20909;-64
2021/07/09 07:33:12;;;;;;;4.83;2.02;;;;;;;25.24;49.27;98649.17;1819879;78;20929;-63
2021/07/09 07:35:39;;;;;;;10.95;2.30;;;;;;;25.30;49.69;98640.02;1820064;78;21263;-63
2021/07/09 07:38:06;;;;;;;9.40;2.05;;;;;;;25.37;50.09;98649.14;1819937;78;21115;-63
2021/07/09 07:40:34;;;;;;;13.53;2.67;;;;;;;25.44;50.54;98639.66;1820047;78;20882;-60
2021/07/09 07:43:00;;;;;;;13.30;2.67;;;;;;;25.53;49.95;98641.54;1819816;78;20870;-61
2021/07/09 07:45:28;;;;;;;14.15;2.47;;;;;;;25.58;49.25;98632.98;1819810;78;20997;-64
2021/07/09 07:47:55;;;;;;;4.80;2.15;;;;;;;25.61;49.01;98632.25;1819967;78;20874;-65
2021/07/09 07:50:22;;;;;;;11.60;2.50;;;;;;;25.65;49.46;98633.08;1819934;78;20874;-65
2021/07/09 07:52:49;;;;;;;4.75;2.52;;;;;;;25.70;49.50;98634.12;1816652;78;20910;-61
2021/07/09 07:55:18;;;;;;;5.85;2.27;;;;;;;25.74;49.78;98626.70;1811566;79;20945;-62
2021/07/09 07:57:45;;;;;;;6.40;2.27;;;;;;;25.83;50.00;98631.13;1811620;79;20886;-64
2021/07/09 08:00:13;;;;;;;9.58;2.00;;;;;;;25.91;49.66;98631.42;1817845;77;20892;-65
2021/07/09 08:02:41;;;;;;;8.00;2.17;;;;;;;26.00;47.65;98633.28;1821602;78;21680;-59
2021/07/09 08:05:10;;;;;;;6.25;2.05;;;;;;;26.04;46.75;98630.78;1821610;78;20966;-64
2021/07/09 08:07:38;;;;;;;6.50;1.90;;;;;;;26.10;46.48;98628.46;1821524;78;21423;-62
2021/07/09 08:10:10;;;;;;;5.30;1.90;;;;;;;26.13;45.62;98630.49;1821581;78;20845;-59
2021/07/09 08:12:39;;;;;;;5.35;1.70;;;;;;;26.17;46.80;98628.56;1821635;78;21010;-59
2021/07/09 08:15:09;;;;;;;8.98;2.30;;;;;;;26.22;46.00;98626.85;1821587;78;20951;-60
2021/07/09 08:17:39;;;;;;;4.45;2.17;;;;;;;26.24;46.17;98620.39;1821536;78;20936;-59
2021/07/09 08:20:09;;;;;;;6.42;2.35;;;;;;;26.30;47.05;98624.39;1821667;78;20951;-64
2021/07/09 08:22:38;;;;;;;9.03;2.00;;;;;;;26.35;47.81;98618.55;1821557;78;20923;-65
2021/07/09 08:25:09;;;;;;;6.97;1.82;;;;;;;26.45;47.36;98620.01;1821438;78;21010;-62
2021/07/09 08:27:40;;;;;;;6.25;2.00;;;;;;;26.56;47.31;98622.06;1821772;78;21053;-63
2021/07/09 08:30:10;;;;;;;8.05;2.22;;;;;;;26.65;47.50;98626.06;1821985;78;21414;-61
2021/07/09 08:32:40;;;;;;;8.88;1.90;;;;;;;26.72;46.72;98620.63;1821900;78;20947;-64
2021/07/09 08:35:10;;;;;;;5.10;1.82;;;;;;;26.76;44.34;98617.34;1821478;78;21522;-62
2021/07/09 08:37:39;;;;;;;8.78;1.70;;;;;;;26.75;44.71;98619.90;1821990;78;20908;-62
2021/07/09 08:40:08;;;;;;;10.58;1.98;;;;;;;26.77;45.01;98609.31;1821515;78;21717;-64
2021/07/09 08:42:40;;;;;;;6.95;1.87;;;;;;;26.83;44.17;98610.52;1820796;77;20908;-58
2021/07/09 08:45:11;;;;;;;8.73;1.97;;;;;;;26.87;44.82;98612.73;1788644;78;21052;-64
2021/07/09 08:47:38;;;;;;;5.12;2.35;;;;;;;26.94;44.53;98614.73;1820025;78;20976;-59
2021/07/09 08:50:10;;;;;;;4.72;1.70;;;;;;;26.96;44.65;98610.42;1819809;78;20961;-64
2021/07/09 08:52:40;;;;;;;5.83;1.95;;;;;;;27.06;45.71;98608.30;1819787;78;21144;-67
2021/07/09 08:55:18;;;;;;;5.35;1.80;;;;;;;27.06;45.71;98608.30;1819914;79;20925;-64
2021/07/09 08:57:43;;;;;;;10.30;2.50;;;;;;;27.11;45.39;98600.28;1789053;79;21060;-62
2021/07/09 09:00:36;;;;;;;9.78;1.70;;;;;;;27.20;45.97;98598.00;1819679;78;21612;-65
2021/07/09 09:03:19;;;;;;;8.10;1.92;;;;;;;27.25;46.21;98594.09;1787909;79;20928;-61
2021/07/09 09:05:47;;;;;;;11.57;2.15;;;;;;;27.25;46.21;98594.09;1819531;78;21105;-65
2021/07/09 09:08:22;;;;;;;6.87;2.12;;;;;;;27.34;44.48;98597.27;1819996;78;21412;-63
2021/07/09 09:10:52;;;;;;;;;;;;;;;27.38;43.98;98600.84;1822533;79;21543;-64
2021/07/09 09:13:25;;;;;;;11.80;1.90;;;;;;;27.42;44.32;98593.39;1820077;78;20070;-60
2021/07/09 09:16:10;;;;;;;5.53;1.65;;;;;;;27.43;43.86;98590.85;1818714;79;20846;-63
